Naples, FL

12:10 AM EST on December 25, 2014 (GMT -0500)
Charlotte County | Change Station
CLOSE
Current Station
Airport
Location: Punta Gorda,
Elevation: 26 ft
Nearby Weather Stations

Elev 26 ft 26.92 °N, 81.99 °W | Updated 17 minutes ago

Overcast
Overcast
67 °F
Feels Like 67 °F
N
9
Wind Variable Wind from NNW

Today
High -- | Low -- °F
--% Chance of Precip.
Yesterday
High -- | Low -- °F
Precip. -- in
7:12 AM 5:42 PM
Waxing Crescent, 13% visible
Pressure 30.01 in
Visibility 10.0 miles
Clouds Overcast 8500 ft
Dew Point 62 °F
Humidity 84%
Rainfall 0.02 in
Snow Depth Not available.
UV 0 out of 12
Pollen 2.60 out of 12
Air Quality Not available.
Flu Activity Not available.
METAR KPGD 250453Z AUTO 34008KT 10SM OVC085 19/17 A3001 RMK AO2 SLP162 T01940167 402830194

More Conditions Fewer Conditions

Pressure 30.01 in
Visibility 10.0 miles
Clouds Overcast 8500 ft
Dew Point 62 °F
Humidity 84%
Rainfall 0.02 in
Snow Depth Not available.
UV 0 out of 12
Pollen 2.60 out of 12
Air Quality Not available.
Flu Activity Not available.
METAR KPGD 250453Z AUTO 34008KT 10SM OVC085 19/17 A3001 RMK AO2 SLP162 T01940167 402830194

More Conditions Fewer Conditions

Nowcast | as of 12:03 am EST on December 25, 2014

A line of showers and embedded thunderstorms will continue to move east around 25 mph through the interior areas of South Florida through early this morning. Any thunderstorms that do move through will be capable of producing wind gusts up to 30 mph...lightning strikes...and locally heavy rainfall. If you see lightning or hear thunder move inside until the storms have passed by. Mariners on Lake Okeechobee can also expect higher waves in and near the showers.

×

10-Day Weather Forecast

Almanac

Astronomy

Dec. 25, 2014 Rise Set
Actual Time
Civil Twilight
Nautical Twilight
Astronomical Twilight
Moon
Length of Visible Light
Length of Day
Tomorrow will be .
, % of the Moon is Illuminated

Today's Extremes

State Highs State Lows

Community

WunderPhotos

Upload Photos

1,780,244 photos uploaded!

WunderBlogs® & News

Nearby

Air Quality

  Air Quality AQ Index Pollutant
Not available.

Snow Depth

Station Depth Elevation

Earthquake Activity

City Distance Mag. Time & Date
Minimum magnitude displayed is 2.5.

Coastal Water Temperatures

Place Temperature

Nearby Weather Stations